Time;durP1;ratioP1;P1;durP2;ratioP2;P2;SDS_P1;SDS_P2;PMS_P1;PMS_P2;Temp;Humidity;BMP_temperature;BMP_pressure;BME280_temperature;BME280_humidity;BME280_pressure;Samples;Min_cycle;Max_cycle;Signal;HPM_P1;HPM_P2
2021/11/10 00:02:48;;;;;;;11.60;4.40;;;;;;;3.06;91.52;101918.95;103952;1310;75432;-81
2021/11/10 00:06:25;;;;;;;7.30;3.90;;;;;;;3.01;91.78;101912.25;103700;1310;73082;-79
2021/11/10 00:09:52;;;;;;;;;;;;;;;;;;;;;
2021/11/10 00:13:27;;;;;;;;;;;;;;;2.95;92.27;101914.89;103307;1310;60884;-83
2021/11/10 00:19:34;;;;;;;;;;;;;;;;;;;;;
2021/11/10 00:22:56;;;;;;;9.40;4.60;;;;;;;2.96;92.70;101911.56;103807;1313;71213;-81
2021/11/10 00:26:30;;;;;;;9.00;4.30;;;;;;;2.96;92.37;101907.00;103861;1311;73334;-79
2021/11/10 00:29:37;;;;;;;9.40;4.10;;;;;;;2.90;92.07;101909.50;103450;1313;62422;-82
2021/11/10 00:33:03;;;;;;;7.40;4.70;;;;;;;2.90;92.48;101904.55;103711;1312;60756;-79
2021/11/10 00:36:21;;;;;;;;;;;;;;;;;;;;;
2021/11/10 00:39:50;;;;;;;9.40;4.40;;;;;;;2.83;92.66;101904.42;103567;1310;72602;-82
2021/11/10 00:46:11;;;;;;;;;;;;;;;;;;;;;
2021/11/10 00:49:36;;;;;;;;;;;;;;;;;;;;;
2021/11/10 00:53:02;;;;;;;8.80;4.90;;;;;;;2.68;93.11;101906.60;102917;1316;74370;-80
2021/11/10 00:56:11;;;;;;;10.10;4.50;;;;;;;2.67;93.42;101897.42;103241;1315;71530;-81
2021/11/10 00:59:11;;;;;;;10.60;3.90;;;;;;;2.64;93.27;101897.42;103128;1315;73102;-81
2021/11/10 01:02:31;;;;;;;;;;;;;;;;;;;;;
2021/11/10 01:06:08;;;;;;;7.80;4.40;;;;;;;2.54;93.07;101889.48;103243;1315;60765;-82
2021/11/10 01:10:02;;;;;;;8.60;4.90;;;;;;;2.50;92.84;101888.48;103101;1316;75120;-81
2021/11/10 01:13:14;;;;;;;11.20;4.90;;;;;;;2.43;92.77;101885.94;103206;1312;71967;-83
2021/11/10 01:16:42;;;;;;;9.10;5.00;;;;;;;2.40;93.34;101887.36;103474;1314;72755;-80
2021/11/10 01:20:11;;;;;;;12.30;5.20;;;;;;;2.39;93.96;101881.48;103534;1315;61616;-81
2021/11/10 01:23:27;;;;;;;;;;;;;;;;;;;;;
2021/11/10 01:26:56;;;;;;;14.10;5.30;;;;;;;2.39;94.64;101868.73;103112;1318;74323;-81
2021/11/10 01:30:22;;;;;;;7.90;5.40;;;;;;;2.42;94.87;101861.55;103110;1315;72741;-79
2021/11/10 01:33:35;;;;;;;9.00;5.30;;;;;;;2.44;94.50;101848.00;103156;1315;72906;-82
2021/11/10 01:37:06;;;;;;;9.90;4.80;;;;;;;2.46;94.73;101847.70;103145;1315;62243;-80
2021/11/10 01:40:03;;;;;;;;;;;;;;;;;;;;;
2021/11/10 01:43:36;;;;;;;6.30;3.70;;;;;;;2.43;94.46;101850.33;103182;1318;75221;-80
2021/11/10 01:47:03;;;;;;;10.20;4.50;;;;;;;2.37;94.11;101845.97;103228;1318;71430;-83
2021/11/10 01:50:32;;;;;;;8.90;4.90;;;;;;;2.28;93.68;101842.67;102481;1316;73928;-79
2021/11/10 01:53:32;;;;;;;;;;;;;;;;;;;;;
2021/11/10 01:57:06;;;;;;;13.00;5.40;;;;;;;2.13;93.75;101837.86;103189;1320;61972;-80
2021/11/10 02:00:30;;;;;;;13.80;5.60;;;;;;;2.09;94.25;101831.83;103076;1318;73652;-80
2021/11/10 02:03:56;;;;;;;;;;;;;;;;;;;;;
2021/11/10 02:07:26;;;;;;;12.00;4.70;;;;;;;2.01;94.81;101827.37;103072;1318;72984;-83
2021/11/10 02:10:52;;;;;;;10.90;4.80;;;;;;;2.00;94.92;101835.30;103153;1320;62574;-82
2021/11/10 02:14:20;;;;;;;12.90;5.30;;;;;;;1.98;94.82;101827.89;103244;1318;60655;-83
2021/11/10 02:17:23;;;;;;;;;;;;;;;;;;;;;
2021/11/10 02:20:58;;;;;;;10.20;4.70;;;;;;;1.90;94.24;101807.48;103276;1318;72784;-80
2021/11/10 02:23:57;;;;;;;6.80;4.60;;;;;;;1.88;94.65;101808.30;102393;1316;72004;-79
2021/11/10 02:27:14;;;;;;;;;;;;;;;;;;;;;
2021/11/10 02:30:44;;;;;;;7.60;4.10;;;;;;;1.83;94.68;101804.17;103451;1318;62116;-82
2021/11/10 02:34:11;;;;;;;8.90;4.60;;;;;;;1.76;93.89;101802.88;103367;1317;74408;-80
2021/11/10 02:37:40;;;;;;;7.60;3.60;;;;;;;1.69;94.24;101806.95;102970;1318;71543;-80
2021/11/10 02:41:17;;;;;;;;;;;;;;;;;;;;;
2021/11/10 02:44:53;;;;;;;9.10;5.30;;;;;;;1.53;93.71;101799.11;103047;1317;60384;-80
2021/11/10 02:48:21;;;;;;;;;;;;;;;;;;;;;
2021/11/10 02:55:18;;;;;;;6.80;3.60;;;;;;;1.45;94.55;101800.16;102653;1319;72487;-79
2021/11/10 02:58:47;;;;;;;9.60;3.90;;;;;;;1.41;94.16;101798.27;103109;1316;74943;-80
2021/11/10 03:02:16;;;;;;;9.60;5.50;;;;;;;1.34;94.15;101797.63;103436;1317;61558;-82
2021/11/10 03:05:00;;;;;;;;;;;;;;;;;;;;;
2021/11/10 03:08:29;;;;;;;12.20;5.20;;;;;;;1.33;94.97;101793.02;103188;1316;75351;-79
2021/11/10 03:11:48;;;;;;;;;;;;;;;;;;;;;
2021/11/10 03:15:17;;;;;;;11.30;5.50;;;;;;;1.35;95.58;101801.59;102995;1317;73207;-80
2021/11/10 03:18:54;;;;;;;;;;;;;;;;;;;;;
2021/11/10 03:21:58;;;;;;;10.80;4.90;;;;;;;1.33;95.46;101799.26;102927;1318;60613;-82
2021/11/10 03:25:19;;;;;;;9.90;4.40;;;;;;;1.32;95.83;101805.23;103201;1319;73080;-81
2021/11/10 03:28:58;;;;;;;6.80;3.40;;;;;;;1.32;96.26;101802.78;103306;1317;71402;-79
2021/11/10 03:32:27;;;;;;;10.60;6.40;;;;;;;1.36;97.46;101801.51;102999;1317;75555;-80
2021/11/10 03:35:56;;;;;;;9.40;5.20;;;;;;;1.44;97.60;101798.44;103389;1316;60954;-82
2021/11/10 03:39:05;;;;;;;10.20;4.80;;;;;;;1.51;97.52;101796.86;103147;1316;61568;-80
2021/11/10 03:42:33;;;;;;;10.10;4.60;;;;;;;1.54;97.70;101797.86;103133;1319;76480;-81
2021/11/10 03:45:54;;;;;;;;;;;;;;;;;;;;;
2021/11/10 03:49:23;;;;;;;9.90;3.70;;;;;;;1.72;97.89;101795.96;103403;1316;72973;-79
2021/11/10 03:52:53;;;;;;;8.60;3.30;;;;;;;1.75;97.73;101796.31;103075;1318;60508;-81
2021/11/10 03:56:20;;;;;;;9.00;4.40;;;;;;;1.78;97.93;101804.33;102593;1316;61693;-81
2021/11/10 03:59:44;;;;;;;9.00;4.20;;;;;;;1.81;97.58;101801.20;103027;1313;75210;-82
2021/11/10 04:03:15;;;;;;;7.80;4.50;;;;;;;1.82;97.30;101799.21;103510;1316;70607;-82
2021/11/10 04:06:42;;;;;;;11.10;4.30;;;;;;;1.84;97.33;101800.62;103149;1317;73778;-80
2021/11/10 04:10:16;;;;;;;8.60;3.80;;;;;;;1.84;97.08;101798.40;103091;1317;60619;-79
2021/11/10 04:13:47;;;;;;;5.70;3.40;;;;;;;1.85;97.21;101802.70;103163;1319;62562;-82
2021/11/10 04:17:14;;;;;;;6.20;3.60;;;;;;;1.82;97.27;101802.46;102762;1316;75332;-81
2021/11/10 04:20:34;;;;;;;7.50;3.40;;;;;;;1.83;97.12;101797.20;102951;1313;73601;-80
2021/11/10 04:23:55;;;;;;;;;;;;;;;;;;;;;
2021/11/10 04:27:24;;;;;;;8.40;4.10;;;;;;;1.81;96.57;101791.21;103100;1316;62443;-81
2021/11/10 04:30:53;;;;;;;7.40;4.30;;;;;;;1.83;97.07;101796.86;103119;1316;60929;-79
2021/11/10 04:34:02;;;;;;;8.30;3.60;;;;;;;1.86;97.16;101797.08;103360;1319;75015;-81
2021/11/10 04:40:43;;;;;;;7.20;3.70;;;;;;;1.85;97.05;101791.53;103347;1316;73220;-81
2021/11/10 04:43:41;;;;;;;10.00;4.90;;;;;;;1.84;96.78;101790.89;103441;1316;62345;-80
2021/11/10 04:46:56;;;;;;;6.60;4.00;;;;;;;1.82;96.65;101788.58;103226;1318;60982;-82
2021/11/10 04:50:03;;;;;;;10.20;4.30;;;;;;;1.79;96.55;101778.11;103477;1314;74651;-81
2021/11/10 04:53:11;;;;;;;;;;;;;;;;;;;;;
2021/11/10 04:56:47;;;;;;;7.00;3.90;;;;;;;1.75;96.55;101779.72;103154;1322;74471;-82
2021/11/10 05:00:00;;;;;;;;;;;;;;;;;;;;;
2021/11/10 05:03:29;;;;;;;9.90;3.90;;;;;;;1.74;97.22;101784.15;103256;1318;61066;-83
2021/11/10 05:06:39;;;;;;;9.60;3.50;;;;;;;1.72;96.97;101777.63;103131;1320;74134;-81
2021/11/10 05:09:47;;;;;;;8.30;4.40;;;;;;;1.69;96.74;101778.02;103282;1318;72542;-80
2021/11/10 05:13:19;;;;;;;6.70;3.70;;;;;;;1.69;96.96;101777.84;103197;1318;74251;-83
2021/11/10 05:15:55;;;;;;;12.40;4.30;;;;;;;1.71;97.06;101782.91;103374;1318;62791;-80
2021/11/10 05:18:34;;;;;;;12.80;4.70;;;;;;;1.73;97.17;101777.23;103179;1317;60610;-79
2021/11/10 05:22:05;;;;;;;8.00;3.70;;;;;;;1.77;97.36;101770.86;102777;1317;74344;-80
2021/11/10 05:25:33;;;;;;;9.00;3.60;;;;;;;1.83;97.48;101768.77;103152;1318;72626;-82
2021/11/10 05:28:08;;;;;;;7.00;3.20;;;;;;;1.88;97.54;101762.92;103066;1318;74272;-79
2021/11/10 05:31:31;;;;;;;;;;;;;;;;;;;;;
2021/11/10 05:35:06;;;;;;;7.80;3.90;;;;;;;1.96;97.35;101764.18;103191;1318;61364;-82
2021/11/10 05:38:05;;;;;;;14.80;4.60;;;;;;;2.01;97.40;101763.35;103445;1318;73018;-82
2021/11/10 05:40:59;;;;;;;;;;;;;;;;;;;;;
2021/11/10 05:43:43;;;;;;;9.70;4.40;;;;;;;2.08;97.51;101762.40;102793;1317;73097;-80
2021/11/10 05:46:53;;;;;;;6.70;3.30;;;;;;;2.07;96.80;101755.51;103300;1317;60701;-80
2021/11/10 05:49:46;;;;;;;;;;;;;;;;;;;;;
2021/11/10 05:53:03;;;;;;;8.00;3.90;;;;;;;1.91;95.57;101755.02;103426;1317;75611;-81
2021/11/10 05:56:02;;;;;;;;;;;;;;;;;;;;;
2021/11/10 05:59:22;;;;;;;;;;;;;;;;;;;;;
2021/11/10 06:02:57;;;;;;;8.90;4.40;;;;;;;1.73;95.66;101755.23;103397;1318;61446;-80
2021/11/10 06:05:36;;;;;;;7.60;3.70;;;;;;;1.69;95.57;101754.11;103049;1318;59582;-80
2021/11/10 06:08:27;;;;;;;;;;;;;;;;;;;;;
2021/11/10 06:15:10;;;;;;;9.70;4.30;;;;;;;1.64;96.49;101746.73;102810;1319;74452;-82
2021/11/10 06:18:46;;;;;;;13.40;4.30;;;;;;;1.64;96.56;101746.04;103251;1321;61532;-82
2021/11/10 06:22:13;;;;;;;7.10;4.40;;;;;;;1.61;96.13;101750.20;99015;1320;5512027;-81
2021/11/10 06:24:39;;;;;;;9.00;4.60;;;;;;;1.60;96.64;101757.78;102310;1320;73449;-77
2021/11/10 06:27:11;;;;;;;8.50;4.20;;;;;;;1.65;97.35;101759.89;102746;1318;70365;-78
2021/11/10 06:29:51;;;;;;;6.90;4.10;;;;;;;1.71;97.49;101760.10;102587;1318;74157;-79
2021/11/10 06:32:17;;;;;;;8.40;4.20;;;;;;;1.75;97.42;101759.66;102958;1318;60855;-78
2021/11/10 06:34:48;;;;;;;10.70;4.30;;;;;;;1.79;97.37;101751.59;102322;1321;60381;-78
2021/11/10 06:37:17;;;;;;;9.00;4.30;;;;;;;1.80;96.91;101745.27;102380;1318;74163;-79
2021/11/10 06:39:49;;;;;;;10.50;5.10;;;;;;;1.81;96.68;101748.71;102460;1319;71412;-77
2021/11/10 06:42:18;;;;;;;9.30;4.20;;;;;;;1.82;96.50;101757.15;102507;1319;74250;-80
2021/11/10 06:45:01;;;;;;;9.80;4.60;;;;;;;1.83;96.60;101756.77;102498;1319;61677;-78
2021/11/10 06:48:11;;;;;;;8.00;4.10;;;;;;;1.86;96.59;101769.30;102585;1318;60537;-79
2021/11/10 06:51:41;;;;;;;10.70;4.30;;;;;;;1.84;96.28;101776.90;102405;1318;75254;-77
2021/11/10 06:54:43;;;;;;;9.30;3.60;;;;;;;1.83;96.35;101782.91;102653;1317;74405;-79
2021/11/10 06:57:30;;;;;;;;;;;;;;;;;;;;;
2021/11/10 07:00:45;;;;;;;9.30;4.50;;;;;;;1.87;96.54;101776.58;102716;1318;61277;-78
2021/11/10 07:03:13;;;;;;;12.00;4.70;;;;;;;1.93;96.93;101779.34;102373;1318;60513;-77
2021/11/10 07:06:16;;;;;;;8.10;4.20;;;;;;;1.99;97.10;101777.44;102519;1318;75238;-79
2021/11/10 07:09:18;;;;;;;9.60;4.10;;;;;;;2.07;97.57;101781.48;102085;1320;72435;-78
2021/11/10 07:11:57;;;;;;;8.00;4.30;;;;;;;2.14;97.50;101800.93;102572;1318;74170;-78
2021/11/10 07:14:27;;;;;;;8.70;4.60;;;;;;;2.18;97.51;101806.63;102315;1320;60614;-76
2021/11/10 07:17:01;;;;;;;8.70;4.70;;;;;;;2.24;97.39;101810.26;102570;1321;60659;-80
2021/11/10 07:19:28;;;;;;;6.90;3.80;;;;;;;2.32;97.46;101816.80;102570;1320;74199;-78
2021/11/10 07:21:55;;;;;;;11.30;4.90;;;;;;;2.39;97.24;101818.11;102186;1319;73755;-78
2021/11/10 07:24:46;;;;;;;12.30;4.10;;;;;;;2.45;97.16;101811.81;102558;1322;73656;-77
2021/11/10 07:27:14;;;;;;;10.20;4.60;;;;;;;2.51;97.21;101819.09;102810;1319;60827;-79
2021/11/10 07:29:57;;;;;;;8.90;4.10;;;;;;;2.60;97.14;101816.66;102922;1318;60703;-78
2021/11/10 07:32:23;;;;;;;9.80;4.30;;;;;;;2.69;96.93;101806.62;103002;1323;75302;-78
2021/11/10 07:35:11;;;;;;;9.30;4.20;;;;;;;2.77;96.78;101803.67;102627;1318;72601;-79
2021/11/10 07:37:42;;;;;;;9.10;4.40;;;;;;;2.88;96.22;101807.73;102557;1319;73155;-78
2021/11/10 07:40:26;;;;;;;;;;;;;;;;;;;;;
2021/11/10 07:43:34;;;;;;;9.10;4.00;;;;;;;3.06;95.45;101819.31;102266;1319;62320;-78
2021/11/10 07:46:11;;;;;;;7.60;3.40;;;;;;;3.15;95.33;101813.02;102661;1322;74155;-77
2021/11/10 07:48:51;;;;;;;7.20;4.30;;;;;;;3.22;94.78;101810.92;102952;1319;71143;-79
2021/11/10 07:51:19;;;;;;;7.70;3.60;;;;;;;3.30;94.33;101818.64;102764;1318;73909;-79
2021/11/10 07:53:47;;;;;;;8.40;4.10;;;;;;;3.37;93.91;101812.77;102580;1318;61536;-79
2021/11/10 07:56:15;;;;;;;9.20;3.90;;;;;;;3.43;93.70;101817.48;102449;1318;60703;-77
2021/11/10 07:58:52;;;;;;;7.10;3.60;;;;;;;3.48;93.14;101818.36;102406;1319;75335;-77
2021/11/10 08:01:19;;;;;;;6.80;3.20;;;;;;;3.52;93.15;101817.73;102692;1318;71241;-77
2021/11/10 08:04:06;;;;;;;7.80;3.80;;;;;;;3.58;92.54;101817.53;102435;1318;72985;-77
2021/11/10 08:06:33;;;;;;;7.00;3.60;;;;;;;3.65;92.32;101819.46;102697;1319;61500;-78
2021/11/10 08:09:00;;;;;;;8.80;3.80;;;;;;;3.71;92.01;101808.80;102764;1318;61809;-79
2021/11/10 08:11:38;;;;;;;7.00;3.50;;;;;;;3.78;91.77;101804.46;102367;1318;73120;-76
2021/11/10 08:14:06;;;;;;;10.00;4.00;;;;;;;3.84;91.64;101809.10;102737;1319;71711;-78
2021/11/10 08:16:48;;;;;;;6.00;3.40;;;;;;;3.90;91.61;101805.41;102478;1322;74018;-77
2021/11/10 08:19:25;;;;;;;6.40;3.20;;;;;;;3.99;91.40;101800.23;102386;1319;62350;-78
2021/11/10 08:21:52;;;;;;;6.40;3.40;;;;;;;4.09;91.44;101803.95;102449;1318;60577;-77
2021/11/10 08:24:21;;;;;;;7.60;3.70;;;;;;;4.17;91.08;101802.15;102291;1318;73849;-77
2021/11/10 08:26:51;;;;;;;6.40;2.90;;;;;;;4.27;91.04;101805.15;102496;1318;70604;-78
2021/11/10 08:29:18;;;;;;;8.10;3.30;;;;;;;4.35;90.43;101805.50;102652;1318;72970;-77
2021/11/10 08:31:44;;;;;;;8.60;3.20;;;;;;;4.41;90.34;101801.86;102327;1318;60511;-77
2021/11/10 08:34:14;;;;;;;8.50;3.20;;;;;;;4.48;89.73;101801.07;102464;1318;60643;-77
2021/11/10 08:36:43;;;;;;;6.50;3.00;;;;;;;4.52;89.54;101801.10;102528;1319;73035;-78
2021/11/10 08:39:10;;;;;;;6.70;3.60;;;;;;;4.60;89.55;101799.19;102428;1320;72394;-79
2021/11/10 08:41:37;;;;;;;6.50;3.90;;;;;;;4.66;89.40;101806.65;102490;1318;73038;-77
2021/11/10 08:44:04;;;;;;;6.00;3.20;;;;;;;4.74;88.94;101807.77;102549;1318;63955;-80
2021/11/10 08:46:31;;;;;;;8.80;3.50;;;;;;;4.84;89.05;101810.39;102992;1318;61859;-78
2021/11/10 08:48:57;;;;;;;5.90;3.90;;;;;;;4.95;88.67;101804.77;102239;1319;75937;-79
2021/11/10 08:51:24;;;;;;;6.20;3.10;;;;;;;5.05;88.02;101795.44;102557;1318;71652;-79
2021/11/10 08:53:51;;;;;;;7.50;3.40;;;;;;;5.15;87.51;101800.48;102835;1318;72746;-79
2021/11/10 08:56:38;;;;;;;6.40;3.00;;;;;;;5.25;87.17;101803.25;102335;1318;60673;-77
2021/11/10 08:59:10;;;;;;;5.90;3.20;;;;;;;5.35;86.64;101811.66;102524;1318;61900;-78
2021/11/10 09:01:37;;;;;;;6.50;3.20;;;;;;;5.41;85.82;101818.71;102709;1318;74170;-78
2021/11/10 09:04:05;;;;;;;4.40;3.10;;;;;;;5.49;85.95;101812.36;103046;1318;71450;-78
2021/11/10 09:06:44;;;;;;;7.70;3.40;;;;;;;5.62;86.13;101804.55;102525;1317;72866;-79
2021/11/10 09:09:12;;;;;;;6.00;3.30;;;;;;;5.77;85.92;101796.40;102493;1318;60611;-79
2021/11/10 09:11:41;;;;;;;6.80;3.40;;;;;;;5.93;85.96;101804.64;102592;1318;60850;-76
2021/11/10 09:14:11;;;;;;;7.60;3.30;;;;;;;6.07;85.40;101805.70;102337;1319;75391;-79
2021/11/10 09:16:41;;;;;;;5.70;3.00;;;;;;;6.17;84.67;101801.66;102713;1318;71629;-79
2021/11/10 09:19:09;;;;;;;7.00;3.30;;;;;;;6.22;84.25;101791.05;102509;1318;74179;-79
2021/11/10 09:22:40;;;;;;;6.10;3.10;;;;;;;6.26;83.22;101792.80;102703;1318;60632;-77
2021/11/10 09:25:08;;;;;;;7.80;3.10;;;;;;;6.37;82.42;101798.87;102471;1318;61154;-78
2021/11/10 09:27:43;;;;;;;7.70;3.10;;;;;;;6.42;81.97;101803.39;102571;1318;74281;-77
2021/11/10 09:30:15;;;;;;;5.50;3.70;;;;;;;6.40;81.42;101806.00;102531;1318;71630;-78
2021/11/10 09:32:51;;;;;;;8.50;3.30;;;;;;;6.40;81.34;101806.30;102355;1318;72950;-77
2021/11/10 09:35:33;;;;;;;11.90;3.60;;;;;;;6.47;81.10;101801.88;102684;1318;62685;-79
2021/11/10 09:37:59;;;;;;;6.00;3.60;;;;;;;6.60;81.47;101801.96;102516;1318;60733;-76
2021/11/10 09:40:33;;;;;;;7.60;3.40;;;;;;;6.72;81.06;101804.88;102246;1318;75153;-77
2021/11/10 09:43:23;;;;;;;5.60;3.60;;;;;;;6.82;80.76;101805.42;102615;1321;70665;-80
2021/11/10 09:45:50;;;;;;;10.40;3.40;;;;;;;6.92;80.18;101808.69;102502;1318;74143;-79
2021/11/10 09:48:17;;;;;;;5.50;3.10;;;;;;;7.00;79.83;101806.86;102374;1318;60537;-80
2021/11/10 09:50:48;;;;;;;5.00;3.40;;;;;;;7.06;79.12;101810.55;102904;1318;62174;-80
2021/11/10 09:53:36;;;;;;;6.30;3.40;;;;;;;7.10;78.55;101808.63;103048;1321;74349;-78
2021/11/10 09:57:29;;;;;;;6.50;3.20;;;;;;;7.15;78.70;101803.85;102613;1318;71969;-79
2021/11/10 09:59:32;;;;;;;7.70;3.30;;;;;;;7.19;78.38;101812.02;102625;1319;73330;-78
2021/11/10 10:02:11;;;;;;;5.50;2.90;;;;;;;7.20;78.20;101820.88;102602;1318;62331;-79
2021/11/10 10:05:27;;;;;;;;;;;;;;;;;;;;;
2021/11/10 10:09:18;;;;;;;7.60;3.50;;;;;;;7.25;78.75;101814.45;102584;1319;74545;-78
2021/11/10 10:12:19;;;;;;;6.40;2.50;;;;;;;7.31;78.17;101806.05;102336;1318;71472;-78
2021/11/10 10:14:52;;;;;;;6.80;3.10;;;;;;;7.38;78.03;101797.41;102681;1318;74250;-78
2021/11/10 10:17:36;;;;;;;7.90;3.00;;;;;;;7.47;78.14;101794.39;102392;1323;60549;-77
2021/11/10 10:20:06;;;;;;;5.50;3.50;;;;;;;7.59;77.38;101800.38;102301;1318;60788;-77
2021/11/10 10:22:38;;;;;;;7.20;3.70;;;;;;;7.74;75.88;101797.22;102565;1318;74162;-78
2021/11/10 10:26:16;;;;;;;5.20;2.80;;;;;;;7.85;75.68;101803.85;102559;1322;71600;-80
2021/11/10 10:28:47;;;;;;;6.70;3.10;;;;;;;7.92;74.80;101798.83;102452;1318;74084;-77
2021/11/10 10:31:43;;;;;;;8.90;3.20;;;;;;;7.98;74.97;101794.98;102419;1319;60763;-79
2021/11/10 10:34:18;;;;;;;48.20;20.30;;;;;;;8.10;74.31;101793.83;102218;1319;61956;-77
2021/11/10 10:36:49;;;;;;;26.40;8.80;;;;;;;8.21;73.84;101792.66;102541;1318;74512;-78
2021/11/10 10:39:59;;;;;;;21.10;7.90;;;;;;;8.32;73.24;101789.65;102512;1319;72417;-80
2021/11/10 10:43:00;;;;;;;6.10;2.50;;;;;;;8.53;73.72;101782.90;102772;1318;73015;-81
2021/11/10 10:46:01;;;;;;;;;;;;;;;;;;;;;
2021/11/10 10:48:34;;;;;;;6.10;2.80;;;;;;;8.97;71.52;101792.54;102613;1319;60919;-80
2021/11/10 10:51:04;;;;;;;14.10;5.60;;;;;;;9.14;70.93;101789.13;102329;1318;75326;-76
2021/11/10 10:53:33;;;;;;;19.10;11.50;;;;;;;9.30;70.56;101784.45;102494;1318;72470;-81
2021/11/10 10:56:36;;;;;;;6.80;3.10;;;;;;;9.48;69.60;101775.67;102944;1318;72977;-79
2021/11/10 10:59:17;;;;;;;124.10;68.90;;;;;;;9.71;69.67;101768.31;102676;1318;60633;-78
2021/11/10 11:02:14;;;;;;;8.90;4.90;;;;;;;10.08;70.26;101776.73;102292;1319;60874;-79
2021/11/10 11:04:44;;;;;;;35.90;18.60;;;;;;;10.39;67.80;101768.70;102565;1318;73872;-76
2021/11/10 11:07:29;;;;;;;7.70;3.50;;;;;;;10.56;67.46;101768.42;102569;1318;71209;-80
2021/11/10 11:09:58;;;;;;;;;;;;;;;10.65;65.44;101763.39;102482;1321;73998;-81
2021/11/10 11:12:49;;;;;;;10.10;6.30;;;;;;;10.66;65.90;101769.97;102630;1318;61480;-79
2021/11/10 11:15:27;;;;;;;8.20;3.20;;;;;;;10.68;65.30;101767.36;102310;1316;60909;-77
2021/11/10 11:18:38;;;;;;;13.40;5.60;;;;;;;10.60;64.64;101762.64;102281;1318;75411;-77
2021/11/10 11:21:24;;;;;;;4.30;2.20;;;;;;;10.51;65.54;101753.52;102316;1318;71516;-78
2021/11/10 11:23:57;;;;;;;5.70;2.50;;;;;;;10.46;65.29;101757.94;102835;1316;72932;-77
2021/11/10 11:26:50;;;;;;;3.20;1.90;;;;;;;10.47;66.09;101761.62;102820;1320;60943;-80
2021/11/10 11:30:01;;;;;;;;;;;;;;;;;;;;;
2021/11/10 11:33:01;;;;;;;;;;;;;;;;;;;;;
2021/11/10 11:36:31;;;;;;;7.40;2.60;;;;;;;10.35;64.79;101754.96;102196;1319;71570;-77
2021/11/10 11:39:30;;;;;;;5.20;2.50;;;;;;;10.35;64.99;101750.75;102203;1321;74114;-78
2021/11/10 11:41:58;;;;;;;4.90;2.70;;;;;;;10.53;64.89;101747.74;102309;1318;60538;-77
2021/11/10 11:44:27;;;;;;;5.30;2.10;;;;;;;10.84;63.91;101743.95;102383;1318;60519;-77
2021/11/10 11:47:32;;;;;;;5.00;2.30;;;;;;;11.21;63.20;101739.11;102327;1319;74641;-78
2021/11/10 11:50:03;;;;;;;4.80;2.70;;;;;;;11.67;61.69;101742.83;102416;1318;71569;-78
2021/11/10 11:52:56;;;;;;;6.40;3.00;;;;;;;11.98;61.67;101744.94;102719;1318;74076;-82
2021/11/10 11:55:40;;;;;;;4.70;2.80;;;;;;;12.17;59.95;101744.89;102762;1321;61050;-78
2021/11/10 11:58:12;;;;;;;5.70;2.80;;;;;;;12.47;59.41;101737.45;102409;1316;61412;-79
2021/11/10 12:01:17;;;;;;;6.80;2.60;;;;;;;12.75;58.83;101734.27;102486;1318;74322;-80
2021/11/10 12:04:16;;;;;;;5.70;2.50;;;;;;;13.06;57.65;101723.67;102398;1318;70527;-81
2021/11/10 12:06:59;;;;;;;4.10;2.00;;;;;;;13.21;56.09;101716.15;102468;1318;74154;-77
2021/11/10 12:09:32;;;;;;;4.90;2.20;;;;;;;13.26;56.23;101713.83;102132;1321;61708;-77
2021/11/10 12:12:09;;;;;;;;;;;;;;;;;;;;;
2021/11/10 12:14:39;;;;;;;6.40;3.90;;;;;;;13.09;55.38;101703.92;102481;1318;75582;-78
2021/11/10 12:17:50;;;;;;;6.90;2.80;;;;;;;12.90;54.69;101712.75;102466;1318;70709;-80
2021/11/10 12:20:40;;;;;;;5.20;2.40;;;;;;;12.53;55.77;101715.48;102175;1318;72862;-80
2021/11/10 12:23:07;;;;;;;4.80;2.70;;;;;;;12.32;57.03;101713.48;102096;1319;60484;-77
2021/11/10 12:26:17;;;;;;;5.40;3.00;;;;;;;12.15;57.14;101713.45;102440;1321;62028;-77
2021/11/10 12:29:11;;;;;;;;;;;;;;;;;;;;;
2021/11/10 12:32:08;;;;;;;8.20;3.50;;;;;;;11.89;58.66;101718.43;102358;1318;71502;-80
2021/11/10 12:34:40;;;;;;;4.70;2.90;;;;;;;11.73;59.05;101716.46;102616;1318;72962;-79
2021/11/10 12:37:34;;;;;;;6.20;3.00;;;;;;;11.55;59.29;101714.60;102483;1318;61444;-78
2021/11/10 12:40:25;;;;;;;6.80;2.50;;;;;;;11.31;59.70;101712.02;102515;1319;60494;-80
2021/11/10 12:43:42;;;;;;;4.60;2.60;;;;;;;11.12;60.34;101711.38;102318;1319;75203;-79
2021/11/10 12:47:02;;;;;;;6.60;3.00;;;;;;;10.95;61.04;101703.21;102352;1318;71622;-76
2021/11/10 12:49:37;;;;;;;8.30;3.30;;;;;;;10.84;61.31;101704.77;102324;1318;72004;-79
2021/11/10 12:52:14;;;;;;;3.60;2.50;;;;;;;10.69;61.62;101705.64;102353;1318;61950;-76
2021/11/10 12:54:47;;;;;;;5.70;2.60;;;;;;;10.57;62.10;101704.66;102266;1318;60841;-77
2021/11/10 12:57:56;;;;;;;5.90;2.90;;;;;;;10.52;62.73;101695.98;102252;1320;75404;-79
2021/11/10 13:00:32;;;;;;;5.70;2.80;;;;;;;10.52;63.29;101683.96;101527;1321;71972;-76
2021/11/10 13:03:06;;;;;;;4.80;2.50;;;;;;;10.59;63.66;101679.18;102178;1318;73204;-79
2021/11/10 13:05:51;;;;;;;4.50;2.20;;;;;;;10.61;63.36;101680.57;102451;1318;60621;-77
2021/11/10 13:08:28;;;;;;;4.90;2.60;;;;;;;10.54;63.44;101679.33;102495;1315;61692;-79
2021/11/10 13:10:55;;;;;;;3.90;2.40;;;;;;;10.49;63.97;101677.89;102428;1318;75174;-79
2021/11/10 13:13:36;;;;;;;6.00;2.90;;;;;;;10.42;64.00;101672.54;102162;1320;71464;-78
2021/11/10 13:16:25;;;;;;;5.50;2.70;;;;;;;10.34;64.31;101670.31;102214;1321;73208;-78
2021/11/10 13:19:12;;;;;;;4.10;2.30;;;;;;;10.23;64.52;101677.91;102343;1321;60855;-77
2021/11/10 13:22:09;;;;;;;4.40;2.60;;;;;;;10.13;65.56;101683.67;102674;1318;60617;-80
2021/11/10 13:24:38;;;;;;;6.20;3.30;;;;;;;10.02;65.83;101685.77;102305;1320;74349;-78
2021/11/10 13:27:07;;;;;;;6.50;2.30;;;;;;;9.93;65.98;101688.08;102269;1318;71489;-77
2021/11/10 13:30:12;;;;;;;5.90;3.30;;;;;;;9.86;66.44;101689.95;102561;1318;74281;-77
2021/11/10 13:33:44;;;;;;;6.10;2.50;;;;;;;9.77;67.12;101686.86;102174;1318;60707;-77
2021/11/10 13:36:41;;;;;;;;;;;;;;;;;;;;;
2021/11/10 13:39:15;;;;;;;4.40;2.60;;;;;;;9.60;67.86;101673.16;102235;1316;75245;-79
2021/11/10 13:41:48;;;;;;;5.90;2.40;;;;;;;9.56;68.23;101667.72;102413;1318;71172;-81
2021/11/10 13:44:22;;;;;;;6.30;1.80;;;;;;;9.55;68.39;101659.30;102491;1316;74607;-76
2021/11/10 13:46:54;;;;;;;4.90;2.40;;;;;;;9.53;68.66;101662.25;102564;1318;60470;-80
2021/11/10 13:49:47;;;;;;;3.10;2.00;;;;;;;9.52;68.83;101660.29;102539;1318;60839;-79
2021/11/10 13:52:21;;;;;;;5.50;2.70;;;;;;;9.51;68.87;101663.91;102236;1321;74251;-79
2021/11/10 13:55:25;;;;;;;5.00;1.90;;;;;;;9.51;69.30;101664.04;102297;1318;72430;-76
2021/11/10 13:57:58;;;;;;;5.20;2.30;;;;;;;9.48;69.15;101665.04;102316;1318;72450;-78
2021/11/10 14:01:10;;;;;;;9.20;3.40;;;;;;;9.47;69.20;101671.73;102356;1317;62681;-79
2021/11/10 14:03:37;;;;;;;4.10;1.80;;;;;;;9.45;69.23;101671.20;102627;1318;61902;-77
2021/11/10 14:06:50;;;;;;;7.20;2.60;;;;;;;9.43;69.58;101672.50;102410;1318;74086;-79
2021/11/10 14:10:23;;;;;;;4.90;2.40;;;;;;;9.43;69.65;101670.91;102412;1318;71297;-77
2021/11/10 14:13:04;;;;;;;4.80;2.10;;;;;;;9.44;69.65;101669.38;102351;1319;73014;-77
2021/11/10 14:15:47;;;;;;;;;;;;;;;;;;;;;
2021/11/10 14:18:40;;;;;;;8.10;2.70;;;;;;;9.47;69.96;101679.84;102564;1318;60900;-76
2021/11/10 14:21:40;;;;;;;;;;;;;;;;;;;;;
2021/11/10 14:24:11;;;;;;;5.00;2.60;;;;;;;9.48;69.39;101681.52;103071;1318;70319;-78
2021/11/10 14:26:40;;;;;;;8.50;2.70;;;;;;;9.44;69.40;101684.17;102501;1320;74116;-76
2021/11/10 14:29:12;;;;;;;5.20;2.20;;;;;;;9.39;69.73;101681.98;102386;1320;60702;-80
2021/11/10 14:31:50;;;;;;;4.80;2.50;;;;;;;9.31;70.02;101679.33;102788;1318;61632;-77
2021/11/10 14:34:29;;;;;;;5.00;2.60;;;;;;;9.26;70.49;101680.92;102577;1314;74448;-76
2021/11/10 14:37:54;;;;;;;4.50;2.60;;;;;;;9.20;70.69;101678.45;104520;1318;72100;-79
2021/11/10 14:40:39;;;;;;;6.90;2.80;;;;;;;9.13;71.00;101672.94;102331;1318;74066;-76
2021/11/10 14:44:07;;;;;;;6.00;2.80;;;;;;;9.06;70.84;101677.08;102257;1321;62227;-76
2021/11/10 14:47:14;;;;;;;4.40;2.50;;;;;;;8.97;71.46;101684.92;102293;1319;60891;-77
2021/11/10 14:49:47;;;;;;;5.10;2.60;;;;;;;8.86;71.67;101685.38;102169;1318;75719;-77
2021/11/10 14:52:49;;;;;;;;;;;;;;;;;;;;;
2021/11/10 14:55:35;;;;;;;6.00;2.70;;;;;;;8.69;72.41;101686.30;102235;1318;74704;-79
2021/11/10 14:59:01;;;;;;;5.40;2.60;;;;;;;8.64;72.66;101688.10;102413;1318;60834;-78